sensor_id;sensor_type;location;lat;lon;timestamp;temperature;humidity
26262;DHT22;13988;52.446;13.280;2022-11-13T00:00:31;6.60;99.90
26262;DHT22;13988;52.446;13.280;2022-11-13T00:02:57;6.70;99.90
26262;DHT22;13988;52.446;13.280;2022-11-13T00:05:23;6.70;99.90
26262;DHT22;13988;52.446;13.280;2022-11-13T00:07:48;6.80;99.90
26262;DHT22;13988;52.446;13.280;2022-11-13T00:10:14;6.70;99.90
26262;DHT22;13988;52.446;13.280;2022-11-13T00:12:40;6.80;99.90
26262;DHT22;13988;52.446;13.280;2022-11-13T00:15:06;6.90;99.90
26262;DHT22;13988;52.446;13.280;2022-11-13T00:17:31;6.80;99.90
26262;DHT22;13988;52.446;13.280;2022-11-13T00:19:57;6.90;99.90
26262;DHT22;13988;52.446;13.280;2022-11-13T00:22:23;6.90;99.90
26262;DHT22;13988;52.446;13.280;2022-11-13T00:24:48;6.90;99.90
26262;DHT22;13988;52.446;13.280;2022-11-13T00:27:14;6.90;99.90
26262;DHT22;13988;52.446;13.280;2022-11-13T00:29:39;6.90;99.90
26262;DHT22;13988;52.446;13.280;2022-11-13T00:32:05;7.00;99.90
26262;DHT22;13988;52.446;13.280;2022-11-13T00:34:31;7.00;99.90
26262;DHT22;13988;52.446;13.280;2022-11-13T00:36:56;7.10;99.90
26262;DHT22;13988;52.446;13.280;2022-11-13T00:39:22;7.10;99.90
26262;DHT22;13988;52.446;13.280;2022-11-13T00:41:47;7.00;99.90
26262;DHT22;13988;52.446;13.280;2022-11-13T00:44:13;7.10;99.90
26262;DHT22;13988;52.446;13.280;2022-11-13T00:46:39;7.10;99.90
26262;DHT22;13988;52.446;13.280;2022-11-13T00:49:04;7.20;99.90
26262;DHT22;13988;52.446;13.280;2022-11-13T00:51:30;7.20;99.90
26262;DHT22;13988;52.446;13.280;2022-11-13T00:53:56;7.20;99.90
26262;DHT22;13988;52.446;13.280;2022-11-13T00:56:21;7.30;99.90
26262;DHT22;13988;52.446;13.280;2022-11-13T00:58:47;7.30;99.90
26262;DHT22;13988;52.446;13.280;2022-11-13T01:01:15;7.30;99.90
26262;DHT22;13988;52.446;13.280;2022-11-13T01:03:42;7.40;99.90
26262;DHT22;13988;52.446;13.280;2022-11-13T01:06:13;7.40;99.90
26262;DHT22;13988;52.446;13.280;2022-11-13T01:08:40;7.40;99.90
26262;DHT22;13988;52.446;13.280;2022-11-13T01:11:11;7.40;99.90
26262;DHT22;13988;52.446;13.280;2022-11-13T01:13:41;7.50;99.90
26262;DHT22;13988;52.446;13.280;2022-11-13T01:16:09;7.50;99.90
26262;DHT22;13988;52.446;13.280;2022-11-13T01:18:36;7.60;99.90
26262;DHT22;13988;52.446;13.280;2022-11-13T01:21:13;7.50;99.90
26262;DHT22;13988;52.446;13.280;2022-11-13T01:23:39;7.50;99.90
26262;DHT22;13988;52.446;13.280;2022-11-13T01:28:36;7.60;99.90
26262;DHT22;13988;52.446;13.280;2022-11-13T01:31:10;7.60;99.90
26262;DHT22;13988;52.446;13.280;2022-11-13T01:33:36;7.70;99.90
26262;DHT22;13988;52.446;13.280;2022-11-13T01:36:07;7.60;99.90
26262;DHT22;13988;52.446;13.280;2022-11-13T01:38:33;7.70;99.90
26262;DHT22;13988;52.446;13.280;2022-11-13T01:41:00;7.70;99.90
26262;DHT22;13988;52.446;13.280;2022-11-13T01:43:34;7.70;99.90
26262;DHT22;13988;52.446;13.280;2022-11-13T01:46:19;7.70;99.90
26262;DHT22;13988;52.446;13.280;2022-11-13T01:51:55;7.80;99.90
26262;DHT22;13988;52.446;13.280;2022-11-13T01:54:38;7.90;99.90
26262;DHT22;13988;52.446;13.280;2022-11-13T01:57:05;7.90;99.90
26262;DHT22;13988;52.446;13.280;2022-11-13T01:59:40;7.90;99.90
26262;DHT22;13988;52.446;13.280;2022-11-13T02:02:08;8.00;99.90
26262;DHT22;13988;52.446;13.280;2022-11-13T02:04:35;8.00;99.90
26262;DHT22;13988;52.446;13.280;2022-11-13T02:07:03;8.10;99.90
26262;DHT22;13988;52.446;13.280;2022-11-13T02:09:36;8.10;99.90
26262;DHT22;13988;52.446;13.280;2022-11-13T02:12:05;8.10;99.90
26262;DHT22;13988;52.446;13.280;2022-11-13T02:14:32;8.10;99.90
26262;DHT22;13988;52.446;13.280;2022-11-13T02:17:02;8.20;99.90
26262;DHT22;13988;52.446;13.280;2022-11-13T02:19:35;8.20;99.90
26262;DHT22;13988;52.446;13.280;2022-11-13T02:24:33;8.20;99.90
26262;DHT22;13988;52.446;13.280;2022-11-13T02:27:04;8.20;99.90
26262;DHT22;13988;52.446;13.280;2022-11-13T02:29:30;8.30;99.90
26262;DHT22;13988;52.446;13.280;2022-11-13T02:31:56;8.40;99.90
26262;DHT22;13988;52.446;13.280;2022-11-13T02:34:22;8.30;99.90
26262;DHT22;13988;52.446;13.280;2022-11-13T02:36:48;8.30;99.90
26262;DHT22;13988;52.446;13.280;2022-11-13T02:39:14;8.30;99.90
26262;DHT22;13988;52.446;13.280;2022-11-13T02:41:39;8.30;99.90
26262;DHT22;13988;52.446;13.280;2022-11-13T02:44:06;8.30;99.90
26262;DHT22;13988;52.446;13.280;2022-11-13T02:46:32;8.30;99.90
26262;DHT22;13988;52.446;13.280;2022-11-13T02:48:58;8.30;99.90
26262;DHT22;13988;52.446;13.280;2022-11-13T02:51:23;8.40;99.90
26262;DHT22;13988;52.446;13.280;2022-11-13T02:53:49;8.40;99.90
26262;DHT22;13988;52.446;13.280;2022-11-13T02:56:15;8.40;99.90
26262;DHT22;13988;52.446;13.280;2022-11-13T02:58:41;8.40;99.90
26262;DHT22;13988;52.446;13.280;2022-11-13T03:01:06;8.40;99.90
26262;DHT22;13988;52.446;13.280;2022-11-13T03:03:32;8.40;99.90
26262;DHT22;13988;52.446;13.280;2022-11-13T03:05:58;8.40;99.90
26262;DHT22;13988;52.446;13.280;2022-11-13T03:08:23;8.40;99.90
26262;DHT22;13988;52.446;13.280;2022-11-13T03:10:50;8.50;99.90
26262;DHT22;13988;52.446;13.280;2022-11-13T03:13:16;8.40;99.90
26262;DHT22;13988;52.446;13.280;2022-11-13T03:15:42;8.50;99.90
26262;DHT22;13988;52.446;13.280;2022-11-13T03:18:08;8.50;99.90
26262;DHT22;13988;52.446;13.280;2022-11-13T03:20:37;8.50;99.90
26262;DHT22;13988;52.446;13.280;2022-11-13T03:23:03;8.50;99.90
26262;DHT22;13988;52.446;13.280;2022-11-13T03:25:29;8.60;99.90
26262;DHT22;13988;52.446;13.280;2022-11-13T03:27:55;8.50;99.90
26262;DHT22;13988;52.446;13.280;2022-11-13T03:30:21;8.50;99.90
26262;DHT22;13988;52.446;13.280;2022-11-13T03:32:47;8.50;99.90
26262;DHT22;13988;52.446;13.280;2022-11-13T03:35:12;8.50;99.90
26262;DHT22;13988;52.446;13.280;2022-11-13T03:37:38;8.60;99.90
26262;DHT22;13988;52.446;13.280;2022-11-13T03:40:04;8.60;99.90
26262;DHT22;13988;52.446;13.280;2022-11-13T03:42:30;8.70;99.90
26262;DHT22;13988;52.446;13.280;2022-11-13T03:44:56;8.70;99.90
26262;DHT22;13988;52.446;13.280;2022-11-13T03:47:22;8.70;99.90
26262;DHT22;13988;52.446;13.280;2022-11-13T03:49:47;8.80;99.90
26262;DHT22;13988;52.446;13.280;2022-11-13T03:52:13;9.00;99.90
26262;DHT22;13988;52.446;13.280;2022-11-13T03:54:38;8.80;99.90
26262;DHT22;13988;52.446;13.280;2022-11-13T03:57:04;8.80;99.90
26262;DHT22;13988;52.446;13.280;2022-11-13T03:59:30;8.80;99.90
26262;DHT22;13988;52.446;13.280;2022-11-13T04:01:56;8.80;99.90
26262;DHT22;13988;52.446;13.280;2022-11-13T04:04:22;8.80;99.90
26262;DHT22;13988;52.446;13.280;2022-11-13T04:06:47;8.70;99.90
26262;DHT22;13988;52.446;13.280;2022-11-13T04:09:13;8.80;99.90
26262;DHT22;13988;52.446;13.280;2022-11-13T04:11:39;8.80;99.90
26262;DHT22;13988;52.446;13.280;2022-11-13T04:14:04;8.80;99.90
26262;DHT22;13988;52.446;13.280;2022-11-13T04:16:30;8.80;99.90
26262;DHT22;13988;52.446;13.280;2022-11-13T04:18:55;8.70;99.90
26262;DHT22;13988;52.446;13.280;2022-11-13T04:21:21;8.70;99.90
26262;DHT22;13988;52.446;13.280;2022-11-13T04:23:47;8.80;99.90
26262;DHT22;13988;52.446;13.280;2022-11-13T04:26:12;8.70;99.90
26262;DHT22;13988;52.446;13.280;2022-11-13T04:28:38;8.80;99.90
26262;DHT22;13988;52.446;13.280;2022-11-13T04:31:04;8.90;99.90
26262;DHT22;13988;52.446;13.280;2022-11-13T04:33:29;8.80;99.90
26262;DHT22;13988;52.446;13.280;2022-11-13T04:35:55;8.70;99.90
26262;DHT22;13988;52.446;13.280;2022-11-13T04:38:20;8.80;99.90
26262;DHT22;13988;52.446;13.280;2022-11-13T04:40:49;8.80;99.90
26262;DHT22;13988;52.446;13.280;2022-11-13T04:43:35;8.90;99.90
26262;DHT22;13988;52.446;13.280;2022-11-13T04:46:00;8.80;99.90
26262;DHT22;13988;52.446;13.280;2022-11-13T04:48:26;8.80;99.90
26262;DHT22;13988;52.446;13.280;2022-11-13T04:50:51;8.80;99.90
26262;DHT22;13988;52.446;13.280;2022-11-13T04:53:17;8.90;99.90
26262;DHT22;13988;52.446;13.280;2022-11-13T04:55:43;8.90;99.90
26262;DHT22;13988;52.446;13.280;2022-11-13T04:58:08;8.90;99.90
26262;DHT22;13988;52.446;13.280;2022-11-13T05:00:34;8.90;99.90
26262;DHT22;13988;52.446;13.280;2022-11-13T05:02:59;8.90;99.90
26262;DHT22;13988;52.446;13.280;2022-11-13T05:05:25;8.90;99.90
26262;DHT22;13988;52.446;13.280;2022-11-13T05:07:51;8.90;99.90
26262;DHT22;13988;52.446;13.280;2022-11-13T05:10:17;8.90;99.90
26262;DHT22;13988;52.446;13.280;2022-11-13T05:12:42;8.90;99.90
26262;DHT22;13988;52.446;13.280;2022-11-13T05:15:08;8.90;99.90
26262;DHT22;13988;52.446;13.280;2022-11-13T05:17:34;8.90;99.90
26262;DHT22;13988;52.446;13.280;2022-11-13T05:19:59;8.90;99.90
26262;DHT22;13988;52.446;13.280;2022-11-13T05:22:25;8.90;99.90
26262;DHT22;13988;52.446;13.280;2022-11-13T05:24:50;9.00;99.90
26262;DHT22;13988;52.446;13.280;2022-11-13T05:27:16;9.00;99.90
26262;DHT22;13988;52.446;13.280;2022-11-13T05:29:42;9.00;99.90
26262;DHT22;13988;52.446;13.280;2022-11-13T05:32:07;9.00;99.90
26262;DHT22;13988;52.446;13.280;2022-11-13T05:34:33;8.90;99.90
26262;DHT22;13988;52.446;13.280;2022-11-13T05:36:58;8.90;99.90
26262;DHT22;13988;52.446;13.280;2022-11-13T05:39:24;8.90;99.90
26262;DHT22;13988;52.446;13.280;2022-11-13T05:41:49;8.90;99.90
26262;DHT22;13988;52.446;13.280;2022-11-13T05:44:15;8.90;99.90
26262;DHT22;13988;52.446;13.280;2022-11-13T05:46:41;8.90;99.90
26262;DHT22;13988;52.446;13.280;2022-11-13T05:49:08;8.90;99.90
26262;DHT22;13988;52.446;13.280;2022-11-13T05:51:34;9.10;99.90
26262;DHT22;13988;52.446;13.280;2022-11-13T05:54:00;8.80;99.90
26262;DHT22;13988;52.446;13.280;2022-11-13T05:56:31;8.80;99.90
26262;DHT22;13988;52.446;13.280;2022-11-13T05:58:58;8.90;99.90
26262;DHT22;13988;52.446;13.280;2022-11-13T06:01:26;8.90;99.90
26262;DHT22;13988;52.446;13.280;2022-11-13T06:03:55;8.90;99.90
26262;DHT22;13988;52.446;13.280;2022-11-13T06:06:22;8.90;99.90
26262;DHT22;13988;52.446;13.280;2022-11-13T06:08:48;9.00;99.90
26262;DHT22;13988;52.446;13.280;2022-11-13T06:11:19;9.10;99.90
26262;DHT22;13988;52.446;13.280;2022-11-13T06:13:46;9.00;99.90
26262;DHT22;13988;52.446;13.280;2022-11-13T06:16:18;9.00;99.90
26262;DHT22;13988;52.446;13.280;2022-11-13T06:18:44;9.00;99.90
26262;DHT22;13988;52.446;13.280;2022-11-13T06:21:14;9.00;99.90
26262;DHT22;13988;52.446;13.280;2022-11-13T06:23:41;9.20;99.90
26262;DHT22;13988;52.446;13.280;2022-11-13T06:26:12;9.10;99.90
26262;DHT22;13988;52.446;13.280;2022-11-13T06:28:39;9.00;99.90
26262;DHT22;13988;52.446;13.280;2022-11-13T06:31:13;9.00;99.90
26262;DHT22;13988;52.446;13.280;2022-11-13T06:33:40;9.10;99.90
26262;DHT22;13988;52.446;13.280;2022-11-13T06:36:09;9.10;99.90
26262;DHT22;13988;52.446;13.280;2022-11-13T06:38:36;9.00;99.90
26262;DHT22;13988;52.446;13.280;2022-11-13T06:41:04;9.10;99.90
26262;DHT22;13988;52.446;13.280;2022-11-13T06:43:30;9.00;99.90
26262;DHT22;13988;52.446;13.280;2022-11-13T06:45:56;9.10;99.90
26262;DHT22;13988;52.446;13.280;2022-11-13T06:48:23;9.10;99.90
26262;DHT22;13988;52.446;13.280;2022-11-13T06:50:50;9.10;99.90
26262;DHT22;13988;52.446;13.280;2022-11-13T06:53:16;9.10;99.90
26262;DHT22;13988;52.446;13.280;2022-11-13T06:55:46;9.10;99.90
26262;DHT22;13988;52.446;13.280;2022-11-13T06:58:12;9.10;99.90
26262;DHT22;13988;52.446;13.280;2022-11-13T07:00:39;9.10;99.90
26262;DHT22;13988;52.446;13.280;2022-11-13T07:03:05;9.20;99.90
26262;DHT22;13988;52.446;13.280;2022-11-13T07:05:34;9.20;99.90
26262;DHT22;13988;52.446;13.280;2022-11-13T07:08:00;9.20;99.90
26262;DHT22;13988;52.446;13.280;2022-11-13T07:10:26;9.20;99.90
26262;DHT22;13988;52.446;13.280;2022-11-13T07:12:51;9.20;99.90
26262;DHT22;13988;52.446;13.280;2022-11-13T07:15:17;9.20;99.90
26262;DHT22;13988;52.446;13.280;2022-11-13T07:17:43;9.30;99.90
26262;DHT22;13988;52.446;13.280;2022-11-13T07:20:09;9.30;99.90
26262;DHT22;13988;52.446;13.280;2022-11-13T07:22:34;9.30;99.90
26262;DHT22;13988;52.446;13.280;2022-11-13T07:25:00;9.30;99.90
26262;DHT22;13988;52.446;13.280;2022-11-13T07:27:26;9.30;99.90
26262;DHT22;13988;52.446;13.280;2022-11-13T07:29:51;9.30;99.90
26262;DHT22;13988;52.446;13.280;2022-11-13T07:32:17;9.30;99.90
26262;DHT22;13988;52.446;13.280;2022-11-13T07:34:42;9.30;99.90
26262;DHT22;13988;52.446;13.280;2022-11-13T07:37:08;9.30;99.90
26262;DHT22;13988;52.446;13.280;2022-11-13T07:39:33;9.30;99.90
26262;DHT22;13988;52.446;13.280;2022-11-13T07:41:59;9.40;99.90
26262;DHT22;13988;52.446;13.280;2022-11-13T07:44:25;9.40;99.90
26262;DHT22;13988;52.446;13.280;2022-11-13T07:46:50;9.40;99.90
26262;DHT22;13988;52.446;13.280;2022-11-13T07:49:16;9.40;99.90
26262;DHT22;13988;52.446;13.280;2022-11-13T07:51:41;9.40;99.90
26262;DHT22;13988;52.446;13.280;2022-11-13T07:54:07;9.40;99.90
26262;DHT22;13988;52.446;13.280;2022-11-13T07:56:33;9.40;99.90
26262;DHT22;13988;52.446;13.280;2022-11-13T07:58:58;9.40;99.90
26262;DHT22;13988;52.446;13.280;2022-11-13T08:01:24;9.40;99.90
26262;DHT22;13988;52.446;13.280;2022-11-13T08:03:50;9.40;99.90
26262;DHT22;13988;52.446;13.280;2022-11-13T08:06:15;9.50;99.90
26262;DHT22;13988;52.446;13.280;2022-11-13T08:08:41;9.50;99.90
26262;DHT22;13988;52.446;13.280;2022-11-13T08:11:08;9.40;99.90
26262;DHT22;13988;52.446;13.280;2022-11-13T08:13:35;9.50;99.90
26262;DHT22;13988;52.446;13.280;2022-11-13T08:16:02;9.50;99.90
26262;DHT22;13988;52.446;13.280;2022-11-13T08:18:29;9.50;99.90
26262;DHT22;13988;52.446;13.280;2022-11-13T08:20:55;9.60;99.90
26262;DHT22;13988;52.446;13.280;2022-11-13T08:23:21;9.50;99.90
26262;DHT22;13988;52.446;13.280;2022-11-13T08:25:47;9.60;99.90
26262;DHT22;13988;52.446;13.280;2022-11-13T08:28:13;9.60;99.90
26262;DHT22;13988;52.446;13.280;2022-11-13T08:30:38;9.60;99.90
26262;DHT22;13988;52.446;13.280;2022-11-13T08:33:04;9.60;99.90
26262;DHT22;13988;52.446;13.280;2022-11-13T08:35:30;9.70;99.90
26262;DHT22;13988;52.446;13.280;2022-11-13T08:38:03;9.70;99.90
26262;DHT22;13988;52.446;13.280;2022-11-13T08:40:29;9.70;99.90
26262;DHT22;13988;52.446;13.280;2022-11-13T08:43:02;9.70;99.90
26262;DHT22;13988;52.446;13.280;2022-11-13T08:45:29;9.70;99.90
26262;DHT22;13988;52.446;13.280;2022-11-13T08:47:59;9.70;99.90
26262;DHT22;13988;52.446;13.280;2022-11-13T08:50:26;9.80;99.90
26262;DHT22;13988;52.446;13.280;2022-11-13T08:52:56;9.80;99.90
26262;DHT22;13988;52.446;13.280;2022-11-13T08:55:22;9.80;99.90
26262;DHT22;13988;52.446;13.280;2022-11-13T08:57:48;9.80;99.90
26262;DHT22;13988;52.446;13.280;2022-11-13T09:00:14;9.80;99.90
26262;DHT22;13988;52.446;13.280;2022-11-13T09:02:40;9.90;99.90
26262;DHT22;13988;52.446;13.280;2022-11-13T09:05:06;9.80;99.90
26262;DHT22;13988;52.446;13.280;2022-11-13T09:07:32;9.90;99.90
26262;DHT22;13988;52.446;13.280;2022-11-13T09:09:57;9.90;99.90
26262;DHT22;13988;52.446;13.280;2022-11-13T09:12:23;9.90;99.90
26262;DHT22;13988;52.446;13.280;2022-11-13T09:14:49;9.90;99.90
26262;DHT22;13988;52.446;13.280;2022-11-13T09:17:15;10.20;99.90
26262;DHT22;13988;52.446;13.280;2022-11-13T09:19:41;10.00;99.90
26262;DHT22;13988;52.446;13.280;2022-11-13T09:22:06;9.90;99.90
26262;DHT22;13988;52.446;13.280;2022-11-13T09:24:32;9.90;99.90
26262;DHT22;13988;52.446;13.280;2022-11-13T09:26:58;10.00;99.90
26262;DHT22;13988;52.446;13.280;2022-11-13T09:29:23;10.00;99.90
26262;DHT22;13988;52.446;13.280;2022-11-13T09:31:51;10.00;99.90
26262;DHT22;13988;52.446;13.280;2022-11-13T09:34:17;9.90;99.90
26262;DHT22;13988;52.446;13.280;2022-11-13T09:36:42;9.90;99.90
26262;DHT22;13988;52.446;13.280;2022-11-13T09:39:08;10.00;99.90
26262;DHT22;13988;52.446;13.280;2022-11-13T09:41:37;10.00;99.90
26262;DHT22;13988;52.446;13.280;2022-11-13T09:44:15;10.00;99.90
26262;DHT22;13988;52.446;13.280;2022-11-13T09:46:44;10.00;99.90
26262;DHT22;13988;52.446;13.280;2022-11-13T09:49:16;10.00;99.90
26262;DHT22;13988;52.446;13.280;2022-11-13T09:51:51;10.10;99.90
26262;DHT22;13988;52.446;13.280;2022-11-13T09:54:17;10.10;99.90
26262;DHT22;13988;52.446;13.280;2022-11-13T10:11:00;10.30;99.90
26262;DHT22;13988;52.446;13.280;2022-11-13T10:18:43;10.30;99.90
26262;DHT22;13988;52.446;13.280;2022-11-13T10:21:26;10.30;99.90
26262;DHT22;13988;52.446;13.280;2022-11-13T10:23:56;10.30;99.90
26262;DHT22;13988;52.446;13.280;2022-11-13T10:26:23;10.30;99.90
26262;DHT22;13988;52.446;13.280;2022-11-13T10:28:59;10.30;99.90
26262;DHT22;13988;52.446;13.280;2022-11-13T10:31:26;10.40;99.90
26262;DHT22;13988;52.446;13.280;2022-11-13T10:33:53;10.40;99.90
26262;DHT22;13988;52.446;13.280;2022-11-13T10:37:19;10.30;99.90
26262;DHT22;13988;52.446;13.280;2022-11-13T10:39:25;10.40;99.90
26262;DHT22;13988;52.446;13.280;2022-11-13T10:41:52;10.40;99.90
26262;DHT22;13988;52.446;13.280;2022-11-13T10:44:22;10.40;99.90
26262;DHT22;13988;52.446;13.280;2022-11-13T10:46:48;10.40;99.90
26262;DHT22;13988;52.446;13.280;2022-11-13T10:49:26;10.50;99.90
26262;DHT22;13988;52.446;13.280;2022-11-13T10:51:57;10.60;99.90
26262;DHT22;13988;52.446;13.280;2022-11-13T10:54:31;10.60;99.90
26262;DHT22;13988;52.446;13.280;2022-11-13T10:56:59;10.60;99.90
26262;DHT22;13988;52.446;13.280;2022-11-13T10:59:25;10.60;99.90
26262;DHT22;13988;52.446;13.280;2022-11-13T11:01:51;10.60;99.90
26262;DHT22;13988;52.446;13.280;2022-11-13T11:04:25;10.60;99.90
26262;DHT22;13988;52.446;13.280;2022-11-13T11:06:54;10.60;99.90
26262;DHT22;13988;52.446;13.280;2022-11-13T11:09:25;10.60;99.90
26262;DHT22;13988;52.446;13.280;2022-11-13T11:20:04;10.70;99.90
26262;DHT22;13988;52.446;13.280;2022-11-13T11:22:34;10.70;99.90
26262;DHT22;13988;52.446;13.280;2022-11-13T11:25:18;10.60;99.90
26262;DHT22;13988;52.446;13.280;2022-11-13T11:27:58;10.70;99.90
26262;DHT22;13988;52.446;13.280;2022-11-13T11:30:28;10.80;99.90
26262;DHT22;13988;52.446;13.280;2022-11-13T11:33:14;11.10;99.90
26262;DHT22;13988;52.446;13.280;2022-11-13T11:35:51;11.20;99.90
26262;DHT22;13988;52.446;13.280;2022-11-13T11:38:28;11.20;99.90
26262;DHT22;13988;52.446;13.280;2022-11-13T11:41:08;11.70;99.90
26262;DHT22;13988;52.446;13.280;2022-11-13T11:43:44;12.00;99.90
26262;DHT22;13988;52.446;13.280;2022-11-13T11:46:12;11.70;99.90
26262;DHT22;13988;52.446;13.280;2022-11-13T11:48:38;11.60;99.90
26262;DHT22;13988;52.446;13.280;2022-11-13T11:51:43;11.40;99.90
26262;DHT22;13988;52.446;13.280;2022-11-13T11:57:09;11.80;99.90
26262;DHT22;13988;52.446;13.280;2022-11-13T12:05:07;14.00;99.90
26262;DHT22;13988;52.446;13.280;2022-11-13T12:07:52;15.40;99.90
26262;DHT22;13988;52.446;13.280;2022-11-13T12:10:25;16.40;99.90
26262;DHT22;13988;52.446;13.280;2022-11-13T12:13:27;16.90;99.90
26262;DHT22;13988;52.446;13.280;2022-11-13T12:16:14;16.20;99.90
26262;DHT22;13988;52.446;13.280;2022-11-13T12:21:20;15.00;99.90
26262;DHT22;13988;52.446;13.280;2022-11-13T12:35:11;13.80;99.90
26262;DHT22;13988;52.446;13.280;2022-11-13T12:37:45;13.40;99.90
26262;DHT22;13988;52.446;13.280;2022-11-13T12:40:22;13.20;99.90
26262;DHT22;13988;52.446;13.280;2022-11-13T12:45:57;13.70;99.90
26262;DHT22;13988;52.446;13.280;2022-11-13T12:48:31;14.30;99.90
26262;DHT22;13988;52.446;13.280;2022-11-13T12:50:58;14.90;99.90
26262;DHT22;13988;52.446;13.280;2022-11-13T12:53:26;15.90;99.90
26262;DHT22;13988;52.446;13.280;2022-11-13T12:56:02;15.10;99.90
26262;DHT22;13988;52.446;13.280;2022-11-13T12:58:29;14.50;99.90
26262;DHT22;13988;52.446;13.280;2022-11-13T13:01:16;13.40;99.90
26262;DHT22;13988;52.446;13.280;2022-11-13T13:09:34;16.40;99.90
26262;DHT22;13988;52.446;13.280;2022-11-13T13:12:25;15.30;99.90
26262;DHT22;13988;52.446;13.280;2022-11-13T13:18:23;16.70;99.90
26262;DHT22;13988;52.446;13.280;2022-11-13T13:21:10;16.80;99.90
26262;DHT22;13988;52.446;13.280;2022-11-13T13:23:43;16.70;99.90
26262;DHT22;13988;52.446;13.280;2022-11-13T13:28:39;15.40;99.90
26262;DHT22;13988;52.446;13.280;2022-11-13T13:31:30;15.60;99.90
26262;DHT22;13988;52.446;13.280;2022-11-13T13:48:23;12.90;99.90
26262;DHT22;13988;52.446;13.280;2022-11-13T13:50:50;12.50;99.90
26262;DHT22;13988;52.446;13.280;2022-11-13T13:53:24;12.10;99.90
26262;DHT22;13988;52.446;13.280;2022-11-13T13:55:53;11.90;99.90
26262;DHT22;13988;52.446;13.280;2022-11-13T13:58:28;11.80;99.90
26262;DHT22;13988;52.446;13.280;2022-11-13T14:00:57;11.70;99.90
26262;DHT22;13988;52.446;13.280;2022-11-13T14:03:24;11.60;99.90
26262;DHT22;13988;52.446;13.280;2022-11-13T14:05:50;11.50;99.90
26262;DHT22;13988;52.446;13.280;2022-11-13T14:08:18;11.40;99.90
26262;DHT22;13988;52.446;13.280;2022-11-13T14:10:44;11.30;99.90
26262;DHT22;13988;52.446;13.280;2022-11-13T14:13:12;11.20;99.90
26262;DHT22;13988;52.446;13.280;2022-11-13T14:15:38;11.20;99.90
26262;DHT22;13988;52.446;13.280;2022-11-13T14:18:16;11.10;99.90
26262;DHT22;13988;52.446;13.280;2022-11-13T14:20:51;11.00;99.90
26262;DHT22;13988;52.446;13.280;2022-11-13T14:23:27;11.00;99.90
26262;DHT22;13988;52.446;13.280;2022-11-13T14:25:54;10.90;99.90
26262;DHT22;13988;52.446;13.280;2022-11-13T14:28:23;10.90;99.90
26262;DHT22;13988;52.446;13.280;2022-11-13T14:31:01;10.80;99.90
26262;DHT22;13988;52.446;13.280;2022-11-13T14:33:43;10.70;99.90
26262;DHT22;13988;52.446;13.280;2022-11-13T14:36:10;10.60;99.90
26262;DHT22;13988;52.446;13.280;2022-11-13T14:38:40;10.60;99.90
26262;DHT22;13988;52.446;13.280;2022-11-13T14:41:33;10.50;99.90
26262;DHT22;13988;52.446;13.280;2022-11-13T14:44:01;10.40;99.90
26262;DHT22;13988;52.446;13.280;2022-11-13T14:48:54;10.40;99.90
26262;DHT22;13988;52.446;13.280;2022-11-13T14:51:32;10.20;99.90
26262;DHT22;13988;52.446;13.280;2022-11-13T14:54:03;10.20;99.90
26262;DHT22;13988;52.446;13.280;2022-11-13T14:56:38;10.10;99.90
26262;DHT22;13988;52.446;13.280;2022-11-13T14:59:23;9.90;99.90
26262;DHT22;13988;52.446;13.280;2022-11-13T15:01:56;9.80;99.90
26262;DHT22;13988;52.446;13.280;2022-11-13T15:04:23;9.90;99.90
26262;DHT22;13988;52.446;13.280;2022-11-13T15:06:48;9.90;99.90
26262;DHT22;13988;52.446;13.280;2022-11-13T15:09:17;9.90;99.90
26262;DHT22;13988;52.446;13.280;2022-11-13T15:11:43;9.90;99.90
26262;DHT22;13988;52.446;13.280;2022-11-13T15:14:18;9.70;99.90
26262;DHT22;13988;52.446;13.280;2022-11-13T15:16:45;9.70;99.90
26262;DHT22;13988;52.446;13.280;2022-11-13T15:21:44;9.50;99.90
26262;DHT22;13988;52.446;13.280;2022-11-13T15:24:11;9.40;99.90
26262;DHT22;13988;52.446;13.280;2022-11-13T15:26:37;9.30;99.90
26262;DHT22;13988;52.446;13.280;2022-11-13T15:29:03;9.30;99.90
26262;DHT22;13988;52.446;13.280;2022-11-13T15:31:38;9.30;99.90
26262;DHT22;13988;52.446;13.280;2022-11-13T15:34:05;9.20;99.90
26262;DHT22;13988;52.446;13.280;2022-11-13T15:36:30;9.20;99.90
26262;DHT22;13988;52.446;13.280;2022-11-13T15:38:57;9.20;99.90
26262;DHT22;13988;52.446;13.280;2022-11-13T15:41:24;9.10;99.90
26262;DHT22;13988;52.446;13.280;2022-11-13T15:43:53;9.00;99.90
26262;DHT22;13988;52.446;13.280;2022-11-13T15:46:21;9.10;99.90
26262;DHT22;13988;52.446;13.280;2022-11-13T15:48:48;9.10;99.90
26262;DHT22;13988;52.446;13.280;2022-11-13T15:51:21;9.00;99.90
26262;DHT22;13988;52.446;13.280;2022-11-13T15:53:54;8.90;99.90
26262;DHT22;13988;52.446;13.280;2022-11-13T15:56:22;8.70;99.90
26262;DHT22;13988;52.446;13.280;2022-11-13T15:58:49;8.60;99.90
26262;DHT22;13988;52.446;13.280;2022-11-13T16:01:15;8.60;99.90
26262;DHT22;13988;52.446;13.280;2022-11-13T16:03:41;8.60;99.90
26262;DHT22;13988;52.446;13.280;2022-11-13T16:06:17;8.60;99.90
26262;DHT22;13988;52.446;13.280;2022-11-13T16:08:43;8.70;99.90
26262;DHT22;13988;52.446;13.280;2022-11-13T16:11:13;8.70;99.90
26262;DHT22;13988;52.446;13.280;2022-11-13T16:13:39;8.70;99.90
26262;DHT22;13988;52.446;13.280;2022-11-13T16:16:07;8.70;99.90
26262;DHT22;13988;52.446;13.280;2022-11-13T16:18:32;8.70;99.90
26262;DHT22;13988;52.446;13.280;2022-11-13T16:20:58;8.60;99.90
26262;DHT22;13988;52.446;13.280;2022-11-13T16:23:24;8.60;99.90
26262;DHT22;13988;52.446;13.280;2022-11-13T16:25:52;8.60;99.90
26262;DHT22;13988;52.446;13.280;2022-11-13T16:28:18;8.70;99.90
26262;DHT22;13988;52.446;13.280;2022-11-13T16:30:44;8.60;99.90
26262;DHT22;13988;52.446;13.280;2022-11-13T16:33:11;8.50;99.90
26262;DHT22;13988;52.446;13.280;2022-11-13T16:35:38;8.50;99.90
26262;DHT22;13988;52.446;13.280;2022-11-13T16:38:11;8.50;99.90
26262;DHT22;13988;52.446;13.280;2022-11-13T16:40:37;8.50;99.90
26262;DHT22;13988;52.446;13.280;2022-11-13T16:43:06;8.50;99.90
26262;DHT22;13988;52.446;13.280;2022-11-13T16:45:32;8.60;99.90
26262;DHT22;13988;52.446;13.280;2022-11-13T16:47:57;8.50;99.90
26262;DHT22;13988;52.446;13.280;2022-11-13T16:50:27;8.40;99.90
26262;DHT22;13988;52.446;13.280;2022-11-13T16:52:53;8.50;99.90
26262;DHT22;13988;52.446;13.280;2022-11-13T16:55:18;8.30;99.90
26262;DHT22;13988;52.446;13.280;2022-11-13T16:57:44;8.40;99.90
26262;DHT22;13988;52.446;13.280;2022-11-13T17:00:13;8.20;99.90
26262;DHT22;13988;52.446;13.280;2022-11-13T17:02:39;8.30;99.90
26262;DHT22;13988;52.446;13.280;2022-11-13T17:05:05;8.20;99.90
26262;DHT22;13988;52.446;13.280;2022-11-13T17:07:31;8.10;99.90